Bingham, IL (62011)

5:40 PM CDT on March 27, 2015 (GMT -0500)
Eckcellent Karaoke | | Change Station
CLOSE
Current Station
Personal Weather Station
Location: Hillsboro, IL
Elevation: 614 ft
Nearby Weather Stations

Elev 614 ft 39.16 °N, 89.50 °W | Updated 5 seconds ago

Partly Cloudy
Partly Cloudy
38.4 °F
Feels Like 35 °F
N
4.0
Wind Variable Wind from North
Gusts 7.0 mph

Today
High -- | Low -- °F
--% Chance of Precip.
Yesterday
High -- | Low -- °F
Precip. -- in
6:49 AM 7:15 PM
First Quarter, 56% visible
Pressure 30.13 in
Visibility 10.0 miles
Clouds Mostly Cloudy 5000 ft
Windchill 35 °F
Dew Point 20 °F
Humidity 47%
Rainfall 0.00 in
Snow Depth Not available.
UV 1 out of 12
Pollen 5.40 out of 12
Air Quality Not available.
Flu Activity Not available.
METAR K3LF 272235Z AUTO 33010G15KT 10SM BKN050 04/M07 A3013 RMK AO2 T00361074

More Conditions Fewer Conditions

Pressure 30.13 in
Visibility 10.0 miles
Clouds Mostly Cloudy 5000 ft
Windchill 35 °F
Dew Point 20 °F
Humidity 47%
Rainfall 0.00 in
Snow Depth Not available.
UV 1 out of 12
Pollen 5.40 out of 12
Air Quality Not available.
Flu Activity Not available.
METAR K3LF 272235Z AUTO 33010G15KT 10SM BKN050 04/M07 A3013 RMK AO2 T00361074

More Conditions Fewer Conditions

10-Day Weather Forecast

Almanac

Astronomy

Mar. 27, 2015 Rise Set
Actual Time
Civil Twilight
Nautical Twilight
Astronomical Twilight
Moon
Length of Visible Light
Length of Day
Tomorrow will be .
, % of the Moon is Illuminated

Today's Extremes

State Highs State Lows

Community

WunderPhotos

Upload Photos

1,808,856 photos uploaded!

WunderBlogs® & News

Nearby

Air Quality

  Air Quality AQ Index Pollutant
Not available.

Snow Depth

Station Depth Elevation

Earthquake Activity

City Distance Mag. Time & Date
Minimum magnitude displayed is 2.5.

Coastal Water Temperatures

Place Temperature

Stations

Nearby Weather Stations

Station Location Temp. Windchill Dew Point Humidity Wind Precip. Elev Updated Type